createdAt,value
2022-07-31T00:02:45.020Z,1012.8
2022-07-31T00:05:57.170Z,1012.8
2022-07-31T00:09:08.342Z,1012.7
2022-07-31T00:12:20.487Z,1012.7
2022-07-31T00:15:32.633Z,1012.7
2022-07-31T00:18:44.795Z,1012.7
2022-07-31T00:21:56.947Z,1012.7
2022-07-31T00:25:09.082Z,1012.8
2022-07-31T00:28:21.244Z,1012.6
2022-07-31T00:31:32.424Z,1012.7
2022-07-31T00:34:43.594Z,1012.6
2022-07-31T00:37:54.779Z,1012.5
2022-07-31T00:41:05.933Z,1012.6
2022-07-31T00:44:17.112Z,1012.6
2022-07-31T00:47:29.271Z,1012.5
2022-07-31T00:50:41.413Z,1012.6
2022-07-31T00:53:53.565Z,1012.6
2022-07-31T00:57:05.720Z,1012.5
2022-07-31T01:00:17.879Z,1012.5
2022-07-31T01:03:30.026Z,1012.7
2022-07-31T01:06:42.170Z,1012.6
2022-07-31T01:09:54.329Z,1012.6
2022-07-31T01:13:06.471Z,1012.6
2022-07-31T01:16:18.623Z,1012.5
2022-07-31T01:19:30.773Z,1012.5
2022-07-31T01:22:42.938Z,1012.6
2022-07-31T01:25:54.089Z,1012.6
2022-07-31T01:29:06.243Z,1012.6
2022-07-31T01:32:18.398Z,1012.5
2022-07-31T01:35:30.555Z,1012.6
2022-07-31T01:38:42.703Z,1012.6
2022-07-31T01:41:54.860Z,1012.5
2022-07-31T01:45:06.037Z,1012.5
2022-07-31T01:48:17.204Z,1012.5
2022-07-31T01:51:28.375Z,1012.5
2022-07-31T01:54:39.550Z,1012.5
2022-07-31T01:57:51.702Z,1012.6
2022-07-31T02:01:03.858Z,1012.5
2022-07-31T02:04:16.004Z,1012.5
2022-07-31T02:07:28.157Z,1012.5
2022-07-31T02:10:40.353Z,1012.5
2022-07-31T02:13:52.498Z,1012.5
2022-07-31T02:17:04.653Z,1012.4
2022-07-31T02:20:16.792Z,1012.5
2022-07-31T02:23:28.943Z,1012.5
2022-07-31T02:26:41.104Z,1012.5
2022-07-31T02:29:53.265Z,1012.5
2022-07-31T02:33:05.395Z,1012.4
2022-07-31T02:36:16.567Z,1012.4
2022-07-31T02:39:28.720Z,1012.3
2022-07-31T02:42:40.876Z,1012.3
2022-07-31T02:45:53.017Z,1012.2
2022-07-31T02:49:05.172Z,1012.3
2022-07-31T02:52:17.327Z,1012.2
2022-07-31T02:55:29.485Z,1012.2
2022-07-31T02:58:40.658Z,1012.2
2022-07-31T03:01:51.817Z,1012.2
2022-07-31T03:05:03.000Z,1012.2
2022-07-31T03:08:14.178Z,1012.1
2022-07-31T03:11:25.352Z,1012.2
2022-07-31T03:14:36.519Z,1012.2
2022-07-31T03:17:48.673Z,1012.3
2022-07-31T03:21:00.821Z,1012.3
2022-07-31T03:24:12.974Z,1012.2
2022-07-31T03:30:37.289Z,1012.2
2022-07-31T03:33:49.424Z,1012.2
2022-07-31T03:37:01.585Z,1012.2
2022-07-31T03:40:13.736Z,1012.2
2022-07-31T03:43:25.884Z,1012.3
2022-07-31T03:46:38.038Z,1012.3
2022-07-31T03:49:50.180Z,1012.2
2022-07-31T03:53:02.336Z,1012.3
2022-07-31T03:56:13.499Z,1012.3
2022-07-31T03:59:25.657Z,1012.3
2022-07-31T04:02:37.798Z,1012.2
2022-07-31T04:05:49.948Z,1012.3
2022-07-31T04:09:02.109Z,1012.3
2022-07-31T04:12:14.262Z,1012.2
2022-07-31T04:15:26.409Z,1012.3
2022-07-31T04:18:38.555Z,1012.3
2022-07-31T04:21:49.736Z,1012.3
2022-07-31T04:25:00.904Z,1012.4
2022-07-31T04:28:13.066Z,1012.4
2022-07-31T04:31:24.245Z,1012.4
2022-07-31T04:34:35.416Z,1012.3
2022-07-31T04:37:47.564Z,1012.3
2022-07-31T04:40:59.710Z,1012.3
2022-07-31T04:44:11.869Z,1012.3
2022-07-31T04:47:24.001Z,1012.3
2022-07-31T04:50:36.168Z,1012.3
2022-07-31T04:53:48.310Z,1012.4
2022-07-31T04:57:00.473Z,1012.3
2022-07-31T05:00:12.618Z,1012.3
2022-07-31T05:03:24.764Z,1012.3
2022-07-31T05:06:36.928Z,1012.5
2022-07-31T05:09:49.072Z,1012.3
2022-07-31T05:13:01.214Z,1012.4
2022-07-31T05:16:12.395Z,1012.4
2022-07-31T05:19:24.539Z,1012.4
2022-07-31T05:22:36.689Z,1012.4
2022-07-31T05:25:48.844Z,1012.4
2022-07-31T05:29:01.006Z,1012.5
2022-07-31T05:32:13.145Z,1012.4
2022-07-31T05:35:25.291Z,1012.4
2022-07-31T05:38:37.447Z,1012.5
2022-07-31T05:41:48.619Z,1012.5
2022-07-31T05:44:59.806Z,1012.5
2022-07-31T05:48:10.975Z,1012.6
2022-07-31T05:51:22.148Z,1012.6
2022-07-31T05:54:34.284Z,1012.5
2022-07-31T05:57:45.470Z,1012.5
2022-07-31T06:00:56.644Z,1012.6
2022-07-31T06:04:08.786Z,1012.6
2022-07-31T06:07:20.936Z,1012.6
2022-07-31T06:10:33.098Z,1012.6
2022-07-31T06:13:45.245Z,1012.6
2022-07-31T06:16:57.389Z,1012.6
2022-07-31T06:20:09.553Z,1012.6
2022-07-31T06:23:21.702Z,1012.6
2022-07-31T06:26:33.854Z,1012.5
2022-07-31T06:29:45.997Z,1012.5
2022-07-31T06:32:58.146Z,1012.5
2022-07-31T06:36:10.299Z,1012.6
2022-07-31T06:39:22.467Z,1012.5
2022-07-31T06:42:33.618Z,1012.5
2022-07-31T06:45:45.766Z,1012.6
2022-07-31T06:48:57.927Z,1012.6
2022-07-31T06:52:10.076Z,1012.6
2022-07-31T06:55:22.221Z,1012.6
2022-07-31T06:58:34.391Z,1012.6
2022-07-31T07:01:46.534Z,1012.6
2022-07-31T07:04:57.721Z,1012.5
2022-07-31T07:08:08.887Z,1012.5
2022-07-31T07:11:21.040Z,1012.5
2022-07-31T07:14:32.204Z,1012.5
2022-07-31T07:17:43.371Z,1012.4
2022-07-31T07:20:55.524Z,1012.5
2022-07-31T07:24:07.690Z,1012.5
2022-07-31T07:27:19.832Z,1012.4
2022-07-31T07:30:31.988Z,1012.4
2022-07-31T07:33:44.147Z,1012.3
2022-07-31T07:36:56.297Z,1012.3
2022-07-31T07:40:08.453Z,1012.3
2022-07-31T07:43:20.587Z,1012.2
2022-07-31T07:46:32.739Z,1012.2
2022-07-31T07:49:44.900Z,1012.2
2022-07-31T07:52:57.048Z,1012.2
2022-07-31T07:56:09.211Z,1012.1
2022-07-31T07:59:20.370Z,1012
2022-07-31T08:02:32.517Z,1012
2022-07-31T08:05:44.000Z,1012.1
2022-07-31T08:08:56.825Z,1012
2022-07-31T08:12:08.982Z,1012.1
2022-07-31T08:15:21.131Z,1012.1
2022-07-31T08:18:33.283Z,1012
2022-07-31T08:21:44.454Z,1012.1
2022-07-31T08:24:55.636Z,1012.1
2022-07-31T08:28:07.772Z,1012
2022-07-31T08:31:18.954Z,1012.1
2022-07-31T08:34:30.126Z,1012
2022-07-31T08:37:42.276Z,1012
2022-07-31T08:40:54.426Z,1012.1
2022-07-31T08:44:06.584Z,1012
2022-07-31T08:47:18.729Z,1011.9
2022-07-31T08:50:30.887Z,1011.9
2022-07-31T08:53:43.039Z,1011.8
2022-07-31T08:56:55.178Z,1011.8
2022-07-31T09:00:07.329Z,1011.8
2022-07-31T09:03:19.479Z,1011.9
2022-07-31T09:06:31.649Z,1011.8
2022-07-31T09:09:43.788Z,1011.7
2022-07-31T09:12:55.938Z,1011.7
2022-07-31T09:16:07.105Z,1011.8
2022-07-31T09:19:19.261Z,1011.7
2022-07-31T09:22:31.400Z,1011.6
2022-07-31T09:25:43.562Z,1011.7
2022-07-31T09:28:55.699Z,1011.6
2022-07-31T09:32:07.860Z,1011.6
2022-07-31T09:35:20.016Z,1011.5
2022-07-31T09:38:31.178Z,1011.5
2022-07-31T09:41:42.359Z,1011.6
2022-07-31T09:44:54.505Z,1011.5
2022-07-31T09:48:06.649Z,1011.5
2022-07-31T09:51:18.806Z,1011.5
2022-07-31T09:54:30.947Z,1011.5
2022-07-31T09:57:43.108Z,1011.5
2022-07-31T10:00:55.260Z,1011.5
2022-07-31T10:04:07.403Z,1011.4
2022-07-31T10:07:19.541Z,1011.5
2022-07-31T10:10:31.698Z,1011.5
2022-07-31T10:13:43.851Z,1011.5
2022-07-31T10:16:56.006Z,1011.4
2022-07-31T10:20:08.148Z,1011.5
2022-07-31T10:23:19.306Z,1011.4
2022-07-31T10:26:31.458Z,1011.4
2022-07-31T10:29:43.624Z,1011.2
2022-07-31T10:32:55.773Z,1011.3
2022-07-31T10:36:07.908Z,1011.2
2022-07-31T10:39:20.066Z,1011.2
2022-07-31T10:42:32.209Z,1011.2
2022-07-31T10:45:43.404Z,1011.2
2022-07-31T10:48:54.559Z,1011.2
2022-07-31T10:52:05.745Z,1011.1
2022-07-31T10:55:16.901Z,1011.1
2022-07-31T10:58:29.058Z,1011.1
2022-07-31T11:01:41.214Z,1011.1
2022-07-31T11:04:53.364Z,1011.1
2022-07-31T11:08:05.514Z,1011.1
2022-07-31T11:11:17.669Z,1011.1
2022-07-31T11:14:29.814Z,1011.2
2022-07-31T11:17:41.955Z,1011
2022-07-31T11:20:54.106Z,1011.1
2022-07-31T11:24:06.250Z,1011
2022-07-31T11:27:17.426Z,1011
2022-07-31T11:30:29.582Z,1010.8
2022-07-31T11:33:41.740Z,1010.9
2022-07-31T11:36:53.875Z,1010.9
2022-07-31T11:40:06.026Z,1010.9
2022-07-31T11:43:18.177Z,1010.8
2022-07-31T11:46:30.342Z,1010.9
2022-07-31T11:49:42.486Z,1010.9
2022-07-31T11:52:54.643Z,1010.9
2022-07-31T11:56:06.774Z,1010.9
2022-07-31T11:59:17.956Z,1010.9
2022-07-31T12:02:29.118Z,1010.8
2022-07-31T12:05:40.308Z,1010.8
2022-07-31T12:08:51.462Z,1010.8
2022-07-31T12:12:03.620Z,1010.8
2022-07-31T12:15:15.774Z,1010.7
2022-07-31T12:18:27.913Z,1010.7
2022-07-31T12:21:40.066Z,1010.7
2022-07-31T12:24:52.228Z,1010.6
2022-07-31T12:28:04.372Z,1010.7
2022-07-31T12:31:16.512Z,1010.5
2022-07-31T12:34:28.664Z,1010.5
2022-07-31T12:37:40.828Z,1010.6
2022-07-31T12:40:52.970Z,1010.4
2022-07-31T12:44:05.120Z,1010.4
2022-07-31T12:47:17.280Z,1010.4
2022-07-31T12:50:28.443Z,1010.3
2022-07-31T12:53:40.594Z,1010.3
2022-07-31T12:56:52.734Z,1010.3
2022-07-31T13:00:04.900Z,1010.2
2022-07-31T13:03:17.051Z,1010.2
2022-07-31T13:06:29.188Z,1010.2
2022-07-31T13:09:41.382Z,1010.2
2022-07-31T13:12:52.560Z,1010.2
2022-07-31T13:16:03.710Z,1010.2
2022-07-31T13:19:14.891Z,1010.1
2022-07-31T13:22:26.066Z,1009.9
2022-07-31T13:25:38.210Z,1010
2022-07-31T13:28:50.366Z,1010
2022-07-31T13:32:02.517Z,1010
2022-07-31T13:35:14.676Z,1009.9
2022-07-31T13:38:26.819Z,1009.9
2022-07-31T13:41:38.961Z,1009.9
2022-07-31T13:44:51.122Z,1009.8
2022-07-31T13:48:03.261Z,1009.9
2022-07-31T13:51:15.410Z,1009.8
2022-07-31T13:54:27.558Z,1009.7
2022-07-31T13:57:39.726Z,1009.7
2022-07-31T14:00:51.868Z,1009.7
2022-07-31T14:04:03.039Z,1009.7
2022-07-31T14:07:15.194Z,1009.6
2022-07-31T14:10:27.327Z,1009.7
2022-07-31T14:13:39.479Z,1009.5
2022-07-31T14:16:51.634Z,1009.5
2022-07-31T14:20:03.785Z,1009.4
2022-07-31T14:23:15.936Z,1009.4
2022-07-31T14:26:27.119Z,1009.4
2022-07-31T14:29:38.286Z,1009.3
2022-07-31T14:32:50.445Z,1009.4
2022-07-31T14:36:02.584Z,1009.4
2022-07-31T14:39:13.768Z,1009.3
2022-07-31T14:42:24.925Z,1009.3
2022-07-31T14:45:37.091Z,1009.3
2022-07-31T14:48:49.221Z,1009.3
2022-07-31T14:52:01.377Z,1009.3
2022-07-31T14:55:13.530Z,1009.3
2022-07-31T14:58:25.690Z,1009.2
2022-07-31T15:01:37.837Z,1009.3
2022-07-31T15:04:49.993Z,1009.3
2022-07-31T15:08:02.140Z,1009.4
2022-07-31T15:11:14.288Z,1009.3
2022-07-31T15:14:26.439Z,1009.3
2022-07-31T15:17:38.583Z,1009.3
2022-07-31T15:20:50.741Z,1009.3
2022-07-31T15:24:01.908Z,1009.2
2022-07-31T15:27:14.055Z,1009.2
2022-07-31T15:30:26.207Z,1009.2
2022-07-31T15:33:38.348Z,1009.2
2022-07-31T15:36:50.496Z,1009.3
2022-07-31T15:40:02.656Z,1009.2
2022-07-31T15:43:14.808Z,1009.1
2022-07-31T15:46:25.981Z,1009.1
2022-07-31T15:49:37.158Z,1009.2
2022-07-31T15:52:48.334Z,1009.2
2022-07-31T15:55:59.502Z,1009.2
2022-07-31T15:59:11.644Z,1009.2
2022-07-31T16:02:23.797Z,1009.1
2022-07-31T16:05:35.939Z,1009.1
2022-07-31T16:08:48.092Z,1009.1
2022-07-31T16:12:00.241Z,1009.1
2022-07-31T16:15:12.395Z,1009.1
2022-07-31T16:18:24.543Z,1009
2022-07-31T16:21:36.708Z,1009
2022-07-31T16:24:48.845Z,1008.9
2022-07-31T16:28:01.001Z,1009
2022-07-31T16:31:13.149Z,1009
2022-07-31T16:34:25.306Z,1008.9
2022-07-31T16:37:36.460Z,1008.9
2022-07-31T16:40:48.622Z,1008.9
2022-07-31T16:44:00.774Z,1008.9
2022-07-31T16:47:12.916Z,1008.9
2022-07-31T16:50:25.061Z,1008.9
2022-07-31T16:53:37.216Z,1008.9
2022-07-31T16:56:49.379Z,1008.8
2022-07-31T17:00:00.541Z,1008.8
2022-07-31T17:03:11.715Z,1008.8
2022-07-31T17:06:22.904Z,1008.8
2022-07-31T17:09:34.062Z,1008.8
2022-07-31T17:12:46.221Z,1008.8
2022-07-31T17:15:58.358Z,1008.8
2022-07-31T17:19:10.522Z,1008.8
2022-07-31T17:22:22.663Z,1008.7
2022-07-31T17:25:34.814Z,1008.7
2022-07-31T17:28:46.954Z,1008.7
2022-07-31T17:31:59.123Z,1008.7
2022-07-31T17:35:11.270Z,1008.8
2022-07-31T17:38:23.415Z,1008.8
2022-07-31T17:41:35.560Z,1008.7
2022-07-31T17:44:47.722Z,1008.8
2022-07-31T17:47:59.855Z,1008.7
2022-07-31T17:51:11.033Z,1008.7
2022-07-31T17:54:23.192Z,1008.7
2022-07-31T17:57:35.325Z,1008.8
2022-07-31T18:00:47.484Z,1008.7
2022-07-31T18:03:59.625Z,1008.7
2022-07-31T18:07:11.774Z,1008.7
2022-07-31T18:10:23.924Z,1008.7
2022-07-31T18:13:35.099Z,1008.8
2022-07-31T18:16:46.273Z,1008.8
2022-07-31T18:19:57.459Z,1008.8
2022-07-31T18:23:08.616Z,1008.7
2022-07-31T18:26:20.771Z,1008.7
2022-07-31T18:29:32.917Z,1008.7
2022-07-31T18:32:45.063Z,1008.7
2022-07-31T18:35:57.222Z,1008.7
2022-07-31T18:39:09.361Z,1008.7
2022-07-31T18:42:21.530Z,1008.8
2022-07-31T18:45:33.662Z,1008.8
2022-07-31T18:48:45.822Z,1008.7
2022-07-31T18:51:57.969Z,1008.8
2022-07-31T18:55:10.130Z,1008.8
2022-07-31T18:58:22.273Z,1008.8
2022-07-31T19:01:34.434Z,1008.8
2022-07-31T19:04:45.585Z,1008.8
2022-07-31T19:07:57.738Z,1008.8
2022-07-31T19:11:09.892Z,1008.9
2022-07-31T19:14:22.043Z,1008.8
2022-07-31T19:17:34.196Z,1008.9
2022-07-31T19:20:46.362Z,1008.9
2022-07-31T19:23:58.498Z,1008.9
2022-07-31T19:27:09.682Z,1008.9
2022-07-31T19:30:20.857Z,1008.8
2022-07-31T19:33:32.031Z,1008.9
2022-07-31T19:36:43.196Z,1008.9
2022-07-31T19:39:55.359Z,1008.9
2022-07-31T19:43:07.490Z,1008.9
2022-07-31T19:46:19.643Z,1008.9
2022-07-31T19:49:31.795Z,1008.9
2022-07-31T19:52:43.951Z,1008.9
2022-07-31T19:55:56.118Z,1008.8
2022-07-31T19:59:08.267Z,1008.9
2022-07-31T20:02:20.423Z,1008.8
2022-07-31T20:05:32.565Z,1008.8
2022-07-31T20:08:44.711Z,1008.8
2022-07-31T20:11:56.871Z,1008.8
2022-07-31T20:15:09.019Z,1008.7
2022-07-31T20:18:20.181Z,1008.7
2022-07-31T20:21:32.336Z,1008.7
2022-07-31T20:24:44.496Z,1008.8
2022-07-31T20:27:56.638Z,1008.7
2022-07-31T20:31:08.789Z,1008.7
2022-07-31T20:34:20.950Z,1008.7
2022-07-31T20:37:33.095Z,1008.6
2022-07-31T20:40:44.274Z,1008.7
2022-07-31T20:43:55.446Z,1008.6
2022-07-31T20:47:07.607Z,1008.7
2022-07-31T20:50:19.754Z,1008.6
2022-07-31T20:53:31.908Z,1008.6
2022-07-31T20:56:44.061Z,1008.6
2022-07-31T20:59:56.216Z,1008.6
2022-07-31T21:03:08.353Z,1008.6
2022-07-31T21:06:20.520Z,1008.5
2022-07-31T21:09:32.666Z,1008.4
2022-07-31T21:12:44.821Z,1008.4
2022-07-31T21:15:56.979Z,1008.5
2022-07-31T21:19:09.127Z,1008.3
2022-07-31T21:22:21.265Z,1008.3
2022-07-31T21:25:32.450Z,1008.2
2022-07-31T21:28:44.586Z,1008.2
2022-07-31T21:31:56.751Z,1008.2
2022-07-31T21:35:08.897Z,1008.2
2022-07-31T21:38:21.051Z,1008.2
2022-07-31T21:41:33.207Z,1008.2
2022-07-31T21:44:45.356Z,1008.3
2022-07-31T21:47:56.533Z,1008.3
2022-07-31T21:51:07.690Z,1008.3
2022-07-31T21:54:18.873Z,1008.4
2022-07-31T21:57:30.055Z,1008.5
2022-07-31T22:00:41.227Z,1008.5
2022-07-31T22:03:52.401Z,1008.5
2022-07-31T22:07:04.538Z,1008.6
2022-07-31T22:10:15.711Z,1008.6
2022-07-31T22:13:27.872Z,1008.6
2022-07-31T22:16:40.013Z,1008.5
2022-07-31T22:19:52.162Z,1008.5
2022-07-31T22:23:04.319Z,1008.5
2022-07-31T22:26:16.477Z,1008.5
2022-07-31T22:29:28.627Z,1008.6
2022-07-31T22:32:40.786Z,1008.5
2022-07-31T22:35:52.921Z,1008.5
2022-07-31T22:39:05.079Z,1008.6
2022-07-31T22:42:17.240Z,1008.6
2022-07-31T22:45:29.381Z,1008.6
2022-07-31T22:48:41.528Z,1008.6
2022-07-31T22:51:52.709Z,1008.6
2022-07-31T22:55:04.863Z,1008.6
2022-07-31T22:58:17.001Z,1008.7
2022-07-31T23:01:29.155Z,1008.8
2022-07-31T23:04:41.316Z,1008.8
2022-07-31T23:07:52.493Z,1008.8
2022-07-31T23:11:03.656Z,1008.7
2022-07-31T23:14:14.844Z,1008.6
2022-07-31T23:17:26.002Z,1008.5
2022-07-31T23:20:38.146Z,1008.5
2022-07-31T23:23:50.308Z,1008.7
2022-07-31T23:27:02.468Z,1008.6
2022-07-31T23:30:14.612Z,1008.7
2022-07-31T23:33:26.753Z,1008.7
2022-07-31T23:36:38.902Z,1008.7
2022-07-31T23:39:51.056Z,1008.7
2022-07-31T23:43:03.220Z,1008.6
2022-07-31T23:46:15.376Z,1008.7
2022-07-31T23:49:27.526Z,1008.6
2022-07-31T23:52:39.663Z,1008.5
2022-07-31T23:55:51.813Z,1008.5
2022-07-31T23:59:02.994Z,1008.5
